createdAt,value
2023-03-13T17:18:40.278Z,23.10
2023-03-13T17:21:12.382Z,23.70
2023-03-13T17:23:38.980Z,23.50
2023-03-13T17:26:15.136Z,23.40
2023-03-13T17:28:42.657Z,23.20
2023-03-13T17:31:12.477Z,23.20
2023-03-13T17:33:40.718Z,23.20
2023-03-13T17:36:16.004Z,23.20
2023-03-13T17:38:43.051Z,23.20
2023-03-13T17:41:12.173Z,23.30
2023-03-13T17:43:39.557Z,23.20
2023-03-13T17:46:15.819Z,23.20
2023-03-13T17:48:42.505Z,23.20
2023-03-13T17:51:18.149Z,23.30
2023-03-13T17:53:44.878Z,23.30
2023-03-13T17:56:18.948Z,23.30
2023-03-13T17:58:46.860Z,23.30
2023-03-13T18:01:14.666Z,23.30
2023-03-13T18:03:42.265Z,23.40
2023-03-13T18:06:27.544Z,23.30
2023-03-13T18:08:56.590Z,23.40
2023-03-13T18:11:25.176Z,23.30
2023-03-13T18:13:52.578Z,23.40
2023-03-13T18:16:30.326Z,23.40
2023-03-13T18:18:57.283Z,23.30
2023-03-13T18:21:24.254Z,23.30
2023-03-13T18:23:52.063Z,23.30
2023-03-13T18:26:32.528Z,23.30
2023-03-13T18:29:00.700Z,23.20
2023-03-13T18:31:36.672Z,23.20
2023-03-13T18:34:04.749Z,23.20
2023-03-13T18:36:31.924Z,23.20
2023-03-13T18:38:59.068Z,23.20
2023-03-13T18:41:26.100Z,23.10
2023-03-13T18:43:52.672Z,23.10
2023-03-13T18:46:26.640Z,23.00
2023-03-13T18:48:54.056Z,23.10
2023-03-13T18:51:24.722Z,23.10
2023-03-13T18:53:52.617Z,23.10
2023-03-13T18:56:23.936Z,23.20
2023-03-13T18:58:52.268Z,23.20
2023-03-13T19:01:21.672Z,23.30
2023-03-13T19:03:48.965Z,23.30
2023-03-13T19:06:27.590Z,23.30
2023-03-13T19:08:59.436Z,23.40
2023-03-13T19:11:29.045Z,23.30
2023-03-13T19:13:56.505Z,23.40
2023-03-13T19:16:35.071Z,23.40
2023-03-13T19:19:02.354Z,23.30
2023-03-13T19:21:30.836Z,23.40
2023-03-13T19:23:57.796Z,23.40
2023-03-13T19:26:39.336Z,23.40
2023-03-13T19:29:15.665Z,23.50
2023-03-13T19:31:42.591Z,23.50
2023-03-13T19:34:09.728Z,23.50
2023-03-13T19:36:39.653Z,23.50
2023-03-13T19:39:14.022Z,23.60
2023-03-13T19:41:40.884Z,23.60
2023-03-13T19:44:07.751Z,23.60
2023-03-13T19:46:35.489Z,23.60
2023-03-13T19:49:02.282Z,23.50
2023-03-13T19:51:30.248Z,23.50
2023-03-13T19:53:57.299Z,23.50
2023-03-13T19:56:28.470Z,23.50
2023-03-13T19:59:06.349Z,23.60
2023-03-13T20:01:33.093Z,23.60
2023-03-13T20:03:59.697Z,23.60
2023-03-13T20:06:29.184Z,23.60
2023-03-13T20:08:57.696Z,23.60
2023-03-13T20:11:25.324Z,23.60
2023-03-13T20:13:52.154Z,23.70
2023-03-13T20:16:19.051Z,23.70
2023-03-13T20:18:48.517Z,23.70
2023-03-13T20:21:16.482Z,23.60
2023-03-13T20:23:48.545Z,23.60
2023-03-13T20:26:17.624Z,23.60
2023-03-13T20:28:48.532Z,23.50
2023-03-13T20:31:17.322Z,23.60
2023-03-13T20:33:44.006Z,23.60
2023-03-13T20:36:12.965Z,23.60
2023-03-13T20:38:41.029Z,23.60
2023-03-13T20:41:08.309Z,23.60
2023-03-13T20:43:36.831Z,23.50
2023-03-13T20:46:04.683Z,23.60
2023-03-13T20:48:31.266Z,23.60
2023-03-13T20:51:00.152Z,23.60
2023-03-13T20:53:27.506Z,23.60
2023-03-13T20:55:56.846Z,23.70
2023-03-13T20:58:24.010Z,23.70
2023-03-13T21:00:50.625Z,23.70
2023-03-13T21:03:18.744Z,23.70
2023-03-13T21:05:45.549Z,23.70
2023-03-13T21:08:12.316Z,23.70
2023-03-13T21:10:40.859Z,23.60
2023-03-13T21:13:09.181Z,23.60
2023-03-13T21:15:36.211Z,23.60
2023-03-13T21:18:04.117Z,23.50
2023-03-13T21:20:31.415Z,23.50
2023-03-13T21:22:58.012Z,23.50
2023-03-13T21:25:24.789Z,23.40
2023-03-13T21:27:51.365Z,23.40
2023-03-13T21:30:20.545Z,23.40
2023-03-13T21:32:48.468Z,23.40
2023-03-13T21:35:16.664Z,23.50
2023-03-13T21:37:43.919Z,23.40
2023-03-13T21:40:11.590Z,23.50
2023-03-13T21:42:38.251Z,23.50
2023-03-13T21:45:05.781Z,23.50
2023-03-13T21:47:36.657Z,23.50
2023-03-13T21:50:06.326Z,23.60
2023-03-13T21:52:38.038Z,23.50
2023-03-13T21:55:09.815Z,23.60
2023-03-13T21:57:36.400Z,23.70
2023-03-13T22:00:06.031Z,23.60
2023-03-13T22:02:32.594Z,23.60
2023-03-13T22:04:59.237Z,23.70
2023-03-13T22:07:25.844Z,23.60
2023-03-13T22:09:52.412Z,23.60
2023-03-13T22:12:19.108Z,23.60
2023-03-13T22:14:45.697Z,23.60
2023-03-13T22:17:19.226Z,23.60
2023-03-13T22:19:49.308Z,23.70
2023-03-13T22:22:17.092Z,23.70
2023-03-13T22:24:43.651Z,23.70
2023-03-13T22:27:10.343Z,23.70
2023-03-13T22:29:36.993Z,23.70
2023-03-13T22:32:04.352Z,23.60
2023-03-13T22:34:31.029Z,23.60
2023-03-13T22:36:57.573Z,23.60
2023-03-13T22:39:24.243Z,23.60
2023-03-13T22:41:50.905Z,23.60
2023-03-13T22:44:17.468Z,23.50
2023-03-13T22:46:44.044Z,23.50
2023-03-13T22:49:10.616Z,23.60
2023-03-13T22:51:37.198Z,23.50
2023-03-13T22:54:03.880Z,23.50
2023-03-13T22:56:30.457Z,23.50
